Texas Instruments ROA 2006-2018 | TXN

Current and historical return on assets (ROA) values for Texas Instruments (TXN) over the last 10 years. Return on assets can be defined as an indicator of how profitable a company is relative to its total assets. Calculated by dividing a company's operating earnings by its total assets. Texas Instruments ROA for the three months ending September 30, 2018 was 29.17%.
Texas Instruments ROA - Return on Assets Historical Data
Date TTM Net Income Total Assets Return on Assets
2018-09-30 $4.69B $18.57B 25.94%
2018-06-30 $4.40B $18.53B 24.93%
2018-03-31 $4.05B $17.51B 23.65%
2017-12-31 $3.68B $17.64B 21.99%
2017-09-30 $4.39B $16.93B 26.67%
2017-06-30 $4.12B $16.44B 25.32%
2017-03-31 $3.88B $15.98B 24.14%
2016-12-31 $3.60B $16.43B 22.46%
2016-09-30 $3.38B $16.22B 21.21%
2016-06-30 $3.16B $15.69B 19.73%
2016-03-31 $3.04B $15.69B 18.43%
2015-12-31 $2.99B $16.23B 17.66%
2015-09-30 $2.96B $16.54B 17.22%
2015-06-30 $2.98B $17.53B 16.97%
2015-03-31 $2.95B $17.35B 16.77%
2014-12-31 $2.78B $17.37B 15.42%
2014-09-30 $2.47B $17.90B 13.42%
2014-06-30 $2.27B $17.81B 12.14%
2014-03-31 $2.25B $18.94B 11.76%
2013-12-31 $2.13B $18.94B 11.00%
2013-09-30 $1.88B $19.24B 9.61%
2013-06-30 $2.03B $19.40B 10.21%
2013-03-31 $1.82B $19.70B 9.14%
2012-12-31 $1.73B $20.02B 8.63%
2012-09-30 $1.76B $20.51B 8.75%
2012-06-30 $1.58B $19.52B 7.82%
2012-03-31 $1.81B $20.01B 9.20%
2011-12-31 $2.20B $20.50B 12.26%
2011-09-30 $2.83B $20.91B 17.49%
2011-06-30 $3.09B $17.10B 21.86%
2011-03-31 $3.18B $13.31B 24.70%
2010-12-31 $3.18B $13.40B 25.18%
2010-09-30 $2.90B $12.65B 23.55%
2010-06-30 $2.60B $12.16B 21.38%
2010-03-31 $2.10B $12.37B 17.51%
2009-12-31 $1.46B $12.12B 12.38%
2009-09-30 $0.92B $11.90B 7.87%
2009-06-30 $0.95B $11.51B 7.99%
2009-03-31 $1.28B $11.52B 10.56%
2008-12-31 $1.92B $11.92B 15.64%
2008-09-30 $2.57B $12.47B 20.60%
2008-06-30 $2.78B $12.38B 21.76%
2008-03-31 $2.80B $12.34B 21.26%
2007-12-31 $2.66B $12.67B 19.62%
2007-09-30 $2.57B $13.72B 18.54%
2007-06-30 $2.50B $14.02B 17.67%
2007-03-31 $4.27B $13.75B 29.26%
2006-12-31 $4.34B $13.93B 29.59%
2006-09-30 $4.33B $14.79B 28.94%
2006-06-30 $4.26B $15.93B 28.37%
2006-03-31 $2.50B $14.04B 17.06%
2005-12-31 $2.32B $15.06B 15.60%
Sector Industry Market Cap Revenue
Computer and Technology Semiconductor - General $90.887B $14.961B
Texas Instruments Incorporated (TI) is a global semiconductor design and manufacturing company that develops analog ICs and embedded processors. By employing the world's brightest minds, TI creates innovations that shape the future of technology. TI is helping approximately 100,000 customers transform the future, today. They produce TI DLP technology and education technology products. Analog products connect the physical and the digital worlds -turning signals like sound, pressure, temperature, humidity and light into digital 1s and 0s to be used by electronic devices - and translating that data back to information we interact with in the real world. Embedded processors are the processing brains of electronics that gather inputs from analog chips and perform computational processing to operate a system. TI DLP? technology powers a range of display and advanced light control applications spanning industrial, enterprise, automotive and consumer market segments, including projectors and cinema technology.
Stock Name Country Market Cap PE Ratio
Intel (INTC) United States $224.559B 10.93
NVIDIA (NVDA) United States $88.267B 21.00
STMicroelectronics (STM) Switzerland $12.391B 9.94
Amtech Systems (ASYS) United States $0.077B 3.97